createdAt,value
2019-01-16T00:02:12.931Z,22.03
2019-01-16T00:05:04.240Z,15.90
2019-01-16T00:07:57.836Z,15.80
2019-01-16T00:10:49.557Z,13.73
2019-01-16T00:13:28.286Z,15.20
2019-01-16T00:16:23.034Z,14.60
2019-01-16T00:19:11.636Z,16.23
2019-01-16T00:22:00.696Z,17.40
2019-01-16T00:24:48.226Z,14.37
2019-01-16T00:27:31.607Z,13.30
2019-01-16T00:30:26.410Z,17.03
2019-01-16T00:33:16.755Z,14.53
2019-01-16T00:36:14.117Z,19.60
2019-01-16T00:39:01.095Z,27.67
2019-01-16T00:41:47.497Z,25.90
2019-01-16T00:44:45.560Z,22.67
2019-01-16T00:47:34.112Z,24.53
2019-01-16T00:50:34.757Z,11.60
2019-01-16T00:53:12.336Z,22.03
2019-01-16T00:56:00.522Z,20.07
2019-01-16T00:58:48.126Z,31.67
2019-01-16T01:01:39.600Z,26.63
2019-01-16T01:04:36.770Z,29.27
2019-01-16T01:07:30.934Z,31.53
2019-01-16T01:10:14.619Z,20.50
2019-01-16T01:13:09.192Z,12.97
2019-01-16T01:16:09.425Z,9.93
2019-01-16T01:18:56.773Z,9.33
2019-01-16T01:21:40.498Z,13.17
2019-01-16T01:24:32.454Z,12.67
2019-01-16T01:27:27.148Z,12.20
2019-01-16T01:30:17.925Z,9.23
2019-01-16T01:32:56.782Z,9.57
2019-01-16T01:35:37.857Z,13.77
2019-01-16T01:38:38.581Z,10.83
2019-01-16T01:41:25.531Z,11.30
2019-01-16T01:44:12.307Z,11.00
2019-01-16T01:46:59.144Z,11.50
2019-01-16T01:49:53.593Z,10.60
2019-01-16T01:52:49.204Z,10.53
2019-01-16T01:55:29.133Z,11.00
2019-01-16T01:58:16.505Z,10.17
2019-01-16T02:01:07.986Z,13.80
2019-01-16T02:04:05.568Z,12.33
2019-01-16T02:07:00.364Z,12.63
2019-01-16T02:09:45.494Z,9.93
2019-01-16T02:12:35.368Z,8.37
2019-01-16T02:15:25.886Z,8.73
2019-01-16T02:18:19.560Z,8.40
2019-01-16T02:20:56.678Z,8.93
2019-01-16T02:23:50.614Z,8.87
2019-01-16T02:26:32.649Z,9.03
2019-01-16T02:29:23.508Z,7.67
2019-01-16T02:32:07.315Z,7.20
2019-01-16T02:34:55.771Z,6.50
2019-01-16T02:37:46.445Z,6.33
2019-01-16T02:40:27.140Z,7.23
2019-01-16T02:43:21.771Z,5.40
2019-01-16T02:46:03.221Z,6.63
2019-01-16T02:48:55.861Z,7.80
2019-01-16T02:51:36.736Z,9.50
2019-01-16T02:54:31.474Z,9.73
2019-01-16T02:57:20.025Z,6.73
2019-01-16T03:00:06.960Z,8.60
2019-01-16T03:03:04.460Z,7.30
2019-01-16T03:05:50.098Z,6.60
2019-01-16T03:08:44.508Z,7.60
2019-01-16T03:11:45.110Z,8.10
2019-01-16T03:14:35.667Z,8.60
2019-01-16T03:17:33.372Z,9.93
2019-01-16T03:20:24.858Z,10.23
2019-01-16T03:23:11.895Z,10.77
2019-01-16T03:25:56.115Z,8.93
2019-01-16T03:28:43.601Z,10.43
2019-01-16T03:31:24.276Z,11.50
2019-01-16T03:34:15.107Z,10.50
2019-01-16T03:37:12.117Z,23.73
2019-01-16T03:39:59.712Z,27.10
2019-01-16T03:42:40.929Z,73.40
2019-01-16T03:45:20.306Z,19.53
2019-01-16T03:48:09.481Z,10.67
2019-01-16T03:50:58.236Z,11.97
2019-01-16T03:53:50.414Z,12.73
2019-01-16T03:56:38.910Z,13.83
2019-01-16T03:59:27.545Z,12.87
2019-01-16T04:02:14.160Z,10.03
2019-01-16T04:04:53.519Z,15.30
2019-01-16T04:07:49.034Z,12.80
2019-01-16T04:10:31.750Z,14.63
2019-01-16T04:13:16.480Z,11.97
2019-01-16T04:15:54.663Z,12.80
2019-01-16T04:18:42.558Z,20.50
2019-01-16T04:21:31.562Z,19.87
2019-01-16T04:24:23.153Z,21.97
2019-01-16T04:27:10.158Z,21.57
2019-01-16T04:29:57.622Z,23.40
2019-01-16T04:32:52.482Z,18.07
2019-01-16T04:35:42.037Z,15.27
2019-01-16T04:38:36.847Z,17.33
2019-01-16T04:41:24.555Z,45.60
2019-01-16T04:44:22.638Z,37.77
2019-01-16T04:47:10.313Z,21.50
2019-01-16T04:49:48.847Z,13.97
2019-01-16T04:52:38.735Z,14.40
2019-01-16T04:55:39.429Z,20.10
2019-01-16T04:58:26.956Z,21.77
2019-01-16T05:01:28.185Z,19.33
2019-01-16T05:04:15.984Z,13.93
2019-01-16T05:07:14.221Z,15.07
2019-01-16T05:10:01.957Z,13.47
2019-01-16T05:12:49.834Z,14.53
2019-01-16T05:15:41.550Z,17.30
2019-01-16T05:18:29.002Z,15.73
2019-01-16T05:21:25.124Z,14.83
2019-01-16T05:24:15.606Z,15.43
2019-01-16T05:27:02.751Z,19.83
2019-01-16T05:29:57.684Z,18.97
2019-01-16T05:32:46.044Z,28.47
2019-01-16T05:35:41.316Z,20.97
2019-01-16T05:38:29.839Z,21.17
2019-01-16T05:41:24.809Z,41.20
2019-01-16T05:44:13.385Z,29.40
2019-01-16T05:47:08.042Z,38.33
2019-01-16T05:49:55.173Z,41.23
2019-01-16T05:52:41.176Z,18.70
2019-01-16T05:55:29.996Z,19.77
2019-01-16T05:58:15.473Z,18.57
2019-01-16T06:01:07.213Z,17.07
2019-01-16T06:03:57.920Z,12.93
2019-01-16T06:06:42.105Z,14.67
2019-01-16T06:09:29.770Z,41.70
2019-01-16T06:12:24.493Z,18.53
2019-01-16T06:15:13.762Z,19.10
2019-01-16T06:18:04.504Z,20.90
2019-01-16T06:20:54.039Z,67.57
2019-01-16T06:23:45.663Z,59.53
2019-01-16T06:26:29.197Z,58.43
2019-01-16T06:29:20.864Z,49.13
2019-01-16T06:32:10.882Z,54.40
2019-01-16T06:35:05.707Z,66.90
2019-01-16T06:37:53.615Z,59.77
2019-01-16T06:41:07.182Z,52.67
2019-01-16T06:43:55.473Z,55.33
2019-01-16T06:47:18.589Z,86.73
2019-01-16T06:50:16.460Z,118.90
2019-01-16T06:53:07.210Z,135.57
2019-01-16T06:56:08.410Z,113.13
2019-01-16T06:59:15.169Z,96.23
2019-01-16T07:02:10.374Z,45.33
2019-01-16T07:04:55.644Z,21.47
2019-01-16T07:07:53.811Z,15.87
2019-01-16T07:10:41.581Z,14.43
2019-01-16T07:13:32.181Z,14.67
2019-01-16T07:16:24.923Z,16.10
2019-01-16T07:19:17.003Z,13.60
2019-01-16T07:22:20.866Z,15.77
2019-01-16T07:28:46.005Z,16.30
2019-01-16T07:38:49.043Z,16.47
2019-01-16T07:41:29.274Z,33.27
2019-01-16T07:44:31.369Z,28.53
2019-01-16T07:47:36.280Z,22.70
2019-01-16T07:50:58.238Z,29.47
2019-01-16T07:53:59.772Z,20.33
2019-01-16T08:04:35.195Z,25.07
2019-01-16T08:07:45.976Z,29.67
2019-01-16T08:10:28.678Z,26.83
2019-01-16T08:13:20.277Z,25.57
2019-01-16T08:16:23.400Z,27.23
2019-01-16T08:19:11.069Z,29.97
2019-01-16T08:21:55.891Z,12.47
2019-01-16T08:25:02.977Z,11.37
2019-01-16T08:34:16.935Z,9.63
2019-01-16T08:37:08.082Z,11.07
2019-01-16T08:39:59.768Z,8.57
2019-01-16T08:43:09.300Z,7.90
2019-01-16T08:45:58.456Z,7.77
2019-01-16T08:49:03.007Z,8.93
2019-01-16T08:52:21.580Z,9.37
2019-01-16T08:55:12.761Z,10.00
2019-01-16T08:58:13.037Z,6.77
2019-01-16T09:01:05.585Z,9.03
2019-01-16T09:04:00.118Z,9.67
2019-01-16T09:07:08.832Z,15.40
2019-01-16T09:10:05.060Z,8.33
2019-01-16T09:12:52.430Z,7.83
2019-01-16T09:15:47.235Z,6.97
2019-01-16T09:18:54.119Z,7.77
2019-01-16T09:21:39.180Z,12.53
2019-01-16T09:24:36.921Z,9.70
2019-01-16T09:27:20.597Z,7.50
2019-01-16T09:30:15.105Z,12.13
2019-01-16T09:33:02.371Z,6.97
2019-01-16T09:35:51.995Z,7.47
2019-01-16T09:38:49.838Z,7.77
2019-01-16T09:41:41.454Z,9.13
2019-01-16T09:44:28.399Z,7.70
2019-01-16T09:47:17.291Z,6.73
2019-01-16T09:50:14.999Z,6.87
2019-01-16T09:53:02.264Z,5.73
2019-01-16T09:55:49.104Z,5.37
2019-01-16T09:58:36.123Z,7.60
2019-01-16T10:01:33.517Z,7.33
2019-01-16T10:04:27.498Z,7.27
2019-01-16T10:07:24.923Z,7.37
2019-01-16T10:10:04.045Z,6.87
2019-01-16T10:13:07.808Z,6.97
2019-01-16T10:15:54.777Z,6.60
2019-01-16T10:18:41.846Z,7.83
2019-01-16T10:21:32.756Z,7.13
2019-01-16T10:24:29.957Z,9.97
2019-01-16T10:27:18.236Z,7.97
2019-01-16T10:30:00.736Z,9.10
2019-01-16T10:32:57.867Z,8.97
2019-01-16T10:35:44.720Z,8.77
2019-01-16T10:38:31.961Z,7.80
2019-01-16T10:41:18.732Z,6.27
2019-01-16T10:44:14.756Z,7.60
2019-01-16T10:47:05.893Z,7.67
2019-01-16T10:50:03.144Z,7.60
2019-01-16T10:52:50.089Z,8.43
2019-01-16T10:55:38.079Z,6.13
2019-01-16T10:58:25.111Z,7.67
2019-01-16T11:01:16.188Z,7.30
2019-01-16T11:04:13.645Z,7.17
2019-01-16T11:07:00.469Z,6.53
2019-01-16T11:09:47.175Z,6.33
2019-01-16T11:12:33.979Z,6.43
2019-01-16T11:15:20.967Z,6.23
2019-01-16T11:18:09.756Z,7.27
2019-01-16T11:20:56.736Z,7.10
2019-01-16T11:24:00.229Z,6.27
2019-01-16T11:26:59.480Z,6.00
2019-01-16T11:29:46.301Z,5.03
2019-01-16T11:32:33.076Z,6.47
2019-01-16T11:35:21.579Z,5.63
2019-01-16T11:38:04.439Z,6.73
2019-01-16T11:40:55.620Z,7.50
2019-01-16T11:43:40.243Z,6.73
2019-01-16T11:46:31.362Z,6.00
2019-01-16T11:49:18.029Z,6.43
2019-01-16T11:52:06.134Z,7.47
2019-01-16T11:54:53.452Z,8.83
2019-01-16T11:57:40.203Z,10.97
2019-01-16T12:00:31.165Z,9.40
2019-01-16T12:03:18.051Z,9.90
2019-01-16T12:06:05.316Z,8.83
2019-01-16T12:08:59.649Z,6.90
2019-01-16T12:11:44.920Z,7.87
2019-01-16T12:14:31.707Z,7.90
2019-01-16T12:17:11.492Z,6.20
2019-01-16T12:19:55.885Z,7.60
2019-01-16T12:22:43.952Z,24.20
2019-01-16T12:25:38.128Z,6.70
2019-01-16T12:28:37.396Z,5.67
2019-01-16T12:31:11.526Z,6.40
2019-01-16T12:33:58.688Z,5.53
2019-01-16T12:36:45.558Z,6.90
2019-01-16T12:39:46.128Z,5.60
2019-01-16T12:42:46.261Z,12.37
2019-01-16T12:45:43.753Z,14.97
2019-01-16T12:48:44.356Z,5.50
2019-01-16T12:51:33.795Z,6.00
2019-01-16T12:54:19.180Z,4.23
2019-01-16T12:57:16.381Z,4.83
2019-01-16T13:00:13.371Z,5.03
2019-01-16T13:02:57.401Z,5.43
2019-01-16T13:05:57.848Z,4.93
2019-01-16T13:09:04.406Z,3.60
2019-01-16T13:11:51.071Z,4.93
2019-01-16T13:14:37.777Z,7.27
2019-01-16T13:17:24.799Z,6.63
2019-01-16T13:20:12.983Z,8.90
2019-01-16T13:23:00.098Z,4.43
2019-01-16T13:25:42.032Z,9.83
2019-01-16T13:28:28.552Z,8.37
2019-01-16T13:31:28.914Z,6.80
2019-01-16T13:34:29.192Z,6.07
2019-01-16T13:37:17.391Z,7.70
2019-01-16T13:40:04.612Z,6.43
2019-01-16T13:43:02.001Z,7.70
2019-01-16T13:45:48.955Z,8.93
2019-01-16T13:48:40.136Z,24.83
2019-01-16T13:51:37.341Z,10.90
2019-01-16T13:54:31.559Z,9.53
2019-01-16T13:57:25.584Z,13.23
2019-01-16T14:00:13.830Z,8.67
2019-01-16T14:03:04.793Z,7.73
2019-01-16T14:05:46.224Z,8.80
2019-01-16T14:08:23.939Z,7.93
2019-01-16T14:11:11.028Z,7.70
2019-01-16T14:14:11.264Z,7.03
2019-01-16T14:16:59.361Z,7.33
2019-01-16T14:19:46.083Z,5.53
2019-01-16T14:22:40.404Z,5.83
2019-01-16T14:25:43.729Z,6.33
2019-01-16T14:28:31.993Z,5.77
2019-01-16T14:31:20.165Z,5.17
2019-01-16T14:34:08.348Z,4.93
2019-01-16T14:36:50.237Z,6.10
2019-01-16T14:39:38.883Z,8.17
2019-01-16T14:42:42.132Z,6.53
2019-01-16T14:45:36.447Z,5.63
2019-01-16T14:48:20.625Z,7.87
2019-01-16T14:51:11.774Z,8.20
2019-01-16T14:54:03.032Z,8.20
2019-01-16T14:57:06.472Z,8.43
2019-01-16T14:59:48.580Z,8.30
2019-01-16T15:02:35.644Z,10.73
2019-01-16T15:05:23.218Z,8.10
2019-01-16T15:08:10.089Z,6.37
2019-01-16T15:10:58.841Z,5.60
2019-01-16T15:13:41.367Z,4.87
2019-01-16T15:16:35.546Z,5.33
2019-01-16T15:19:26.487Z,7.20
2019-01-16T15:22:10.324Z,9.47
2019-01-16T15:24:49.861Z,8.67
2019-01-16T15:27:41.548Z,8.53
2019-01-16T15:30:34.632Z,10.27
2019-01-16T15:33:21.974Z,8.80
2019-01-16T15:36:16.921Z,7.67
2019-01-16T15:38:58.124Z,5.50
2019-01-16T15:41:51.204Z,9.23
2019-01-16T15:44:38.170Z,8.70
2019-01-16T15:47:25.163Z,10.03
2019-01-16T15:50:10.479Z,14.30
2019-01-16T15:52:50.445Z,13.93
2019-01-16T15:55:36.421Z,13.37
2019-01-16T15:58:24.508Z,13.70
2019-01-16T16:01:11.530Z,13.00
2019-01-16T16:03:48.983Z,14.77
2019-01-16T16:06:35.973Z,12.40
2019-01-16T16:09:27.524Z,12.67
2019-01-16T16:12:16.045Z,14.33
2019-01-16T16:15:02.895Z,14.80
2019-01-16T16:18:00.853Z,15.37
2019-01-16T16:20:47.716Z,16.63
2019-01-16T16:23:35.885Z,18.13
2019-01-16T16:26:42.149Z,18.23
2019-01-16T16:29:33.236Z,25.97
2019-01-16T16:32:39.620Z,24.07
2019-01-16T16:35:26.773Z,26.37
2019-01-16T16:38:09.185Z,30.83
2019-01-16T16:40:53.842Z,36.37
2019-01-16T16:43:44.911Z,36.00
2019-01-16T16:46:34.938Z,37.70
2019-01-16T16:49:14.493Z,38.00
2019-01-16T16:52:01.207Z,54.03
2019-01-16T16:54:52.299Z,67.77
2019-01-16T16:57:39.069Z,45.50
2019-01-16T17:00:27.253Z,43.23
2019-01-16T17:03:24.302Z,45.47
2019-01-16T17:06:11.281Z,52.13
2019-01-16T17:09:10.613Z,52.63
2019-01-16T17:12:13.882Z,49.90
2019-01-16T17:14:53.968Z,44.10
2019-01-16T17:17:40.798Z,44.57
2019-01-16T17:20:28.402Z,78.07
2019-01-16T17:23:19.520Z,49.17
2019-01-16T17:26:26.184Z,42.77
2019-01-16T17:29:13.360Z,48.73
2019-01-16T17:32:04.340Z,50.00
2019-01-16T17:34:45.124Z,60.10
2019-01-16T17:37:28.716Z,58.13
2019-01-16T17:40:08.181Z,51.80
2019-01-16T17:42:59.259Z,63.17
2019-01-16T17:45:53.171Z,66.53
2019-01-16T17:48:40.007Z,234.25
2019-01-16T17:51:30.916Z,194.17
2019-01-16T17:54:22.077Z,115.67
2019-01-16T17:57:06.236Z,103.70
2019-01-16T17:59:58.080Z,91.30
2019-01-16T18:02:38.024Z,80.87
2019-01-16T18:05:38.221Z,75.47
2019-01-16T18:08:25.239Z,70.87
2019-01-16T18:11:08.393Z,101.03
2019-01-16T18:13:59.364Z,131.97
2019-01-16T18:17:02.696Z,109.77
2019-01-16T18:20:02.954Z,132.67
2019-01-16T18:22:56.990Z,144.87
2019-01-16T18:25:38.634Z,131.53
2019-01-16T18:28:27.909Z,142.40
2019-01-16T18:31:14.968Z,129.73
2019-01-16T18:34:01.915Z,86.70
2019-01-16T18:36:41.725Z,120.70
2019-01-16T18:39:28.590Z,119.17
2019-01-16T18:42:15.413Z,58.07
2019-01-16T18:45:09.780Z,72.50
2019-01-16T18:47:46.100Z,79.97
2019-01-16T18:50:37.235Z,71.83
2019-01-16T18:53:28.245Z,59.43
2019-01-16T18:56:07.271Z,53.83
2019-01-16T18:58:55.353Z,43.17
2019-01-16T19:01:55.764Z,42.00
2019-01-16T19:04:35.666Z,49.70
2019-01-16T19:07:22.811Z,72.97
2019-01-16T19:10:10.879Z,52.67
2019-01-16T19:13:02.076Z,54.37
2019-01-16T19:15:42.415Z,61.70
2019-01-16T19:18:45.899Z,70.50
2019-01-16T19:21:49.148Z,69.77
2019-01-16T19:24:39.185Z,77.30
2019-01-16T19:27:30.228Z,67.77
2019-01-16T19:30:17.178Z,69.90
2019-01-16T19:33:11.044Z,54.77
2019-01-16T19:35:59.237Z,47.13
2019-01-16T19:38:50.183Z,49.43
2019-01-16T19:41:37.080Z,46.00
2019-01-16T19:44:28.417Z,49.47
2019-01-16T19:47:17.013Z,42.73
2019-01-16T19:50:05.216Z,48.43
2019-01-16T19:52:45.633Z,41.97
2019-01-16T19:55:40.542Z,49.67
2019-01-16T19:58:38.063Z,44.10
2019-01-16T20:01:41.368Z,39.90
2019-01-16T20:04:28.498Z,44.00
2019-01-16T20:07:18.502Z,42.13
2019-01-16T20:10:09.673Z,45.83
2019-01-16T20:12:56.043Z,50.33
2019-01-16T20:15:50.945Z,47.97
2019-01-16T20:18:48.308Z,383.40
2019-01-16T20:21:35.124Z,59.43
2019-01-16T20:24:25.113Z,61.47
2019-01-16T20:27:22.263Z,52.70
2019-01-16T20:30:12.713Z,57.33
2019-01-16T20:32:50.007Z,54.93
2019-01-16T20:35:36.745Z,55.23
2019-01-16T20:38:23.813Z,60.07
2019-01-16T20:41:10.879Z,54.97
2019-01-16T20:43:57.805Z,52.33
2019-01-16T20:46:45.995Z,42.13
2019-01-16T20:49:36.904Z,36.80
2019-01-16T20:52:22.916Z,42.63
2019-01-16T20:55:20.073Z,42.70
2019-01-16T20:58:08.178Z,54.43
2019-01-16T21:00:55.098Z,60.30
2019-01-16T21:03:46.408Z,54.03
2019-01-16T21:06:39.890Z,52.87
2019-01-16T21:09:46.293Z,53.17
2019-01-16T21:12:33.019Z,57.40
2019-01-16T21:15:36.402Z,60.53
2019-01-16T21:18:20.664Z,78.03
2019-01-16T21:21:03.023Z,77.17
2019-01-16T21:23:49.479Z,91.23
2019-01-16T21:26:36.468Z,74.43
2019-01-16T21:29:24.574Z,86.67
2019-01-16T21:32:12.707Z,68.00
2019-01-16T21:35:07.063Z,76.90
2019-01-16T21:37:58.090Z,81.67
2019-01-16T21:40:46.227Z,82.70
2019-01-16T21:43:49.672Z,67.17
2019-01-16T21:46:36.825Z,181.10
2019-01-16T21:49:28.167Z,198.53
2019-01-16T21:52:19.223Z,98.33
2019-01-16T21:55:04.701Z,72.20
2019-01-16T21:58:01.727Z,68.63
2019-01-16T22:01:05.137Z,155.30
2019-01-16T22:04:11.361Z,196.30
2019-01-16T22:06:58.341Z,200.77
2019-01-16T22:10:01.737Z,214.13
2019-01-16T22:12:48.604Z,451.00
2019-01-16T22:15:54.863Z,215.83
2019-01-16T22:18:40.076Z,87.40
2019-01-16T22:21:27.396Z,50.57
2019-01-16T22:24:27.588Z,72.67
2019-01-16T22:27:24.507Z,299.40
2019-01-16T22:30:06.351Z,93.67
2019-01-16T22:32:59.745Z,59.40
2019-01-16T22:35:47.832Z,139.73
2019-01-16T22:38:28.873Z,112.73
2019-01-16T22:41:32.303Z,63.13
2019-01-16T22:44:35.698Z,53.77
2019-01-16T22:47:19.131Z,82.27
2019-01-16T22:50:13.156Z,58.57
2019-01-16T22:52:57.493Z,46.67
2019-01-16T22:55:53.251Z,46.33
2019-01-16T22:58:47.272Z,48.50
2019-01-16T23:01:21.106Z,40.27
2019-01-16T23:04:08.444Z,38.57
2019-01-16T23:07:08.827Z,31.90
2019-01-16T23:09:54.364Z,33.23
2019-01-16T23:12:41.259Z,31.23
2019-01-16T23:15:29.399Z,32.43
2019-01-16T23:18:32.716Z,29.93
2019-01-16T23:21:36.041Z,27.57
2019-01-16T23:24:27.001Z,27.07
2019-01-16T23:27:27.126Z,30.57
2019-01-16T23:30:14.056Z,41.53
2019-01-16T23:33:00.944Z,38.93
2019-01-16T23:35:49.007Z,37.77
2019-01-16T23:38:37.845Z,33.27
2019-01-16T23:41:20.101Z,38.67
2019-01-16T23:44:08.210Z,35.97
2019-01-16T23:46:59.081Z,36.90
2019-01-16T23:49:45.964Z,40.00
2019-01-16T23:52:37.287Z,43.47
2019-01-16T23:55:32.965Z,44.30
2019-01-16T23:58:27.147Z,42.73
